createdAt,value
2023-02-01T02:21:16.329Z,0.91
2023-02-01T02:24:11.635Z,1.03
2023-02-01T02:27:04.345Z,0.98
2023-02-01T02:29:55.794Z,0.89
2023-02-01T02:32:41.714Z,0.90
2023-02-01T02:35:29.231Z,0.96
2023-02-01T02:38:24.766Z,1.02
2023-02-01T02:41:35.781Z,1.09
2023-02-01T02:44:32.581Z,1.03
2023-02-01T02:47:25.714Z,1.01
2023-02-01T02:50:14.475Z,1.07
2023-02-01T02:53:08.023Z,1.11
2023-02-01T02:55:39.397Z,1.07
2023-02-01T02:58:28.641Z,1.10
2023-02-01T03:01:16.263Z,1.07
2023-02-01T03:04:05.049Z,1.07
2023-02-01T03:06:34.516Z,1.09
2023-02-01T03:09:09.183Z,1.00
2023-02-01T03:11:55.895Z,1.05
2023-02-01T03:14:29.909Z,1.06
2023-02-01T03:17:09.675Z,1.05
2023-02-01T03:19:44.886Z,1.02
2023-02-01T03:22:16.754Z,1.03
2023-02-01T03:24:51.455Z,1.01
2023-02-01T03:28:01.145Z,1.00
2023-02-01T03:30:37.475Z,1.12
2023-02-01T03:33:15.194Z,1.15
2023-02-01T03:35:50.319Z,1.08
2023-02-01T03:38:45.649Z,1.07
2023-02-01T03:41:13.428Z,1.09
2023-02-01T03:43:54.077Z,1.07
2023-02-01T03:46:34.389Z,1.06
2023-02-01T03:49:07.938Z,1.07
2023-02-01T03:51:39.487Z,1.03
2023-02-01T03:54:14.919Z,1.06
2023-02-01T03:56:47.526Z,1.04
2023-02-01T03:59:16.114Z,1.12
2023-02-01T04:01:44.371Z,1.21
2023-02-01T04:04:21.091Z,1.27
2023-02-01T04:06:50.815Z,1.22
2023-02-01T04:09:19.826Z,1.23
2023-02-01T04:11:48.766Z,1.10
2023-02-01T04:14:18.340Z,1.20
2023-02-01T04:16:46.878Z,1.24
2023-02-01T04:19:16.237Z,1.23
2023-02-01T04:21:44.845Z,1.09
2023-02-01T04:24:13.259Z,1.07
2023-02-01T04:26:41.715Z,1.10
2023-02-01T04:29:11.574Z,1.21
2023-02-01T04:31:40.084Z,1.16
2023-02-01T04:34:10.843Z,1.23
2023-02-01T04:36:38.597Z,1.09
2023-02-01T04:39:07.066Z,1.09
2023-02-01T04:41:35.106Z,1.11
2023-02-01T04:44:03.811Z,1.10
2023-02-01T04:46:32.098Z,1.09
2023-02-01T04:49:00.205Z,1.10
2023-02-01T04:51:28.778Z,1.20
2023-02-01T04:53:57.071Z,1.16
2023-02-01T04:56:27.535Z,1.10
2023-02-01T04:58:56.595Z,1.11
2023-02-01T05:01:28.322Z,1.24
2023-02-01T05:03:59.143Z,1.24
2023-02-01T05:06:27.046Z,1.18
2023-02-01T05:08:54.907Z,1.21
2023-02-01T05:11:42.113Z,1.17
2023-02-01T05:14:10.354Z,1.18
2023-02-01T05:16:38.251Z,1.21
2023-02-01T05:19:06.219Z,1.27
2023-02-01T05:21:34.733Z,1.15
2023-02-01T05:24:11.892Z,1.18
2023-02-01T05:26:43.100Z,1.09
2023-02-01T05:29:12.830Z,1.11
2023-02-01T05:31:41.362Z,1.23
2023-02-01T05:34:09.263Z,1.29
2023-02-01T05:36:37.312Z,1.31
2023-02-01T05:39:05.270Z,1.24
2023-02-01T05:41:37.017Z,1.21
2023-02-01T05:44:08.452Z,1.26
2023-02-01T05:46:38.619Z,1.24
2023-02-01T05:49:08.318Z,1.29
2023-02-01T05:51:38.836Z,1.21
2023-02-01T05:54:10.847Z,1.33
2023-02-01T05:56:40.600Z,1.44
2023-02-01T06:04:45.581Z,1.29
2023-02-01T06:07:24.086Z,1.36
2023-02-01T06:15:52.651Z,1.50
2023-02-01T06:23:16.971Z,1.27
2023-02-01T06:25:46.323Z,1.30
2023-02-01T06:28:15.045Z,1.31
2023-02-01T06:30:47.631Z,1.38
2023-02-01T06:33:16.512Z,1.55
2023-02-01T06:35:52.663Z,1.41
2023-02-01T06:38:38.699Z,1.39
2023-02-01T10:36:30.507Z,3.20
2023-02-01T10:39:03.368Z,2.97
2023-02-01T10:41:38.329Z,2.91
2023-02-01T10:44:15.638Z,2.76
2023-02-01T10:46:44.133Z,3.18
2023-02-01T10:49:38.582Z,2.58
2023-02-01T10:52:18.256Z,2.46
2023-02-01T10:54:47.134Z,2.19
2023-02-01T10:57:27.268Z,2.19
2023-02-01T11:00:06.221Z,2.19
2023-02-01T11:02:36.752Z,2.38
2023-02-01T11:05:15.641Z,2.36
2023-02-01T11:07:56.609Z,2.07
2023-02-01T11:10:45.958Z,1.82
2023-02-01T11:13:19.907Z,1.66
2023-02-01T11:15:59.280Z,1.69
2023-02-01T11:18:37.134Z,1.52
2023-02-01T11:21:08.211Z,1.68
2023-02-01T11:23:44.577Z,1.62
2023-02-01T11:26:25.067Z,1.40
2023-02-01T11:29:00.919Z,1.28
2023-02-01T11:31:30.257Z,1.35
2023-02-01T11:34:13.023Z,1.34
2023-02-01T11:36:47.247Z,1.41
2023-02-01T11:39:33.158Z,1.09
2023-02-01T11:42:16.910Z,1.24
2023-02-01T11:44:48.454Z,1.24
2023-02-01T11:47:48.559Z,1.16
2023-02-01T11:50:34.650Z,1.21
2023-02-01T11:53:43.197Z,1.15
2023-02-01T11:56:26.359Z,1.07
2023-02-01T11:59:19.904Z,1.03
2023-02-01T12:02:09.636Z,1.25
2023-02-01T12:05:16.460Z,1.17
2023-02-01T12:08:01.718Z,1.15
2023-02-01T12:10:48.415Z,1.04
2023-02-01T12:13:41.672Z,1.02
2023-02-01T12:16:49.655Z,0.65
2023-02-01T12:19:57.934Z,0.75
2023-02-01T12:23:17.220Z,0.81
2023-02-01T12:26:38.350Z,0.65
2023-02-01T12:29:23.019Z,0.70
2023-02-01T12:32:18.285Z,0.77
2023-02-01T12:35:39.944Z,0.75
2023-02-01T12:38:38.867Z,0.66
2023-02-01T12:41:45.301Z,0.67
2023-02-01T12:44:52.122Z,0.67
2023-02-01T12:47:38.496Z,1.05
2023-02-01T12:50:06.768Z,1.00
2023-02-01T12:52:54.017Z,0.51
2023-02-01T12:55:30.254Z,0.63
2023-02-01T12:58:20.264Z,0.70
2023-02-01T13:01:09.091Z,0.55
2023-02-01T13:03:57.745Z,0.70
2023-02-01T13:06:32.688Z,0.74
2023-02-01T13:09:30.826Z,0.50
2023-02-01T13:12:23.161Z,0.55
2023-02-01T13:15:04.234Z,0.41
2023-02-01T13:17:35.524Z,0.59
2023-02-01T13:20:29.978Z,0.41
2023-02-01T13:23:31.342Z,0.59
2023-02-01T13:26:18.602Z,0.21
2023-02-01T13:29:21.211Z,0.31
2023-02-01T13:32:54.785Z,0.58
2023-02-01T13:35:44.088Z,0.41
2023-02-01T13:38:50.486Z,0.42
2023-02-01T13:41:56.456Z,0.35
2023-02-01T13:44:36.187Z,0.44
2023-02-01T13:47:37.815Z,0.64
2023-02-01T13:50:36.007Z,0.64
2023-02-01T13:53:34.317Z,0.56
2023-02-01T13:56:51.141Z,0.64
2023-02-01T13:59:51.911Z,0.61
2023-02-01T14:02:53.217Z,0.41
2023-02-01T14:05:40.505Z,0.51
2023-02-01T14:08:12.365Z,0.63
2023-02-01T14:13:47.594Z,0.29
2023-02-01T14:16:28.600Z,0.11
2023-02-01T14:19:08.790Z,0.21
2023-02-01T14:22:04.954Z,0.27
2023-02-01T14:24:39.984Z,0.27
2023-02-01T14:27:27.032Z,0.38
2023-02-01T14:30:10.573Z,0.36
2023-02-01T14:33:01.530Z,0.21
2023-02-01T14:38:43.165Z,0.16
2023-02-01T14:41:42.663Z,0.37
2023-02-01T14:44:59.216Z,0.30
2023-02-01T14:47:33.766Z,0.35
2023-02-01T14:50:34.904Z,0.24
2023-02-01T14:53:21.590Z,0.37
2023-02-01T14:56:03.502Z,0.19
2023-02-01T14:59:15.771Z,0.17
2023-02-01T15:01:58.016Z,0.16
2023-02-01T15:04:55.121Z,0.10
2023-02-01T15:07:34.755Z,0.12
2023-02-01T15:10:07.581Z,0.10
2023-02-01T15:12:42.084Z,0.24
2023-02-01T15:18:05.496Z,0.42
2023-02-01T15:20:37.073Z,0.44
2023-02-01T15:23:21.471Z,0.42
2023-02-01T15:25:52.831Z,0.56
2023-02-01T15:28:25.541Z,0.62
2023-02-01T15:31:00.225Z,0.69
2023-02-01T15:33:32.647Z,0.60
2023-02-01T15:36:13.672Z,0.63
2023-02-01T15:38:45.789Z,0.78
2023-02-01T15:41:35.075Z,0.72
2023-02-01T15:44:40.073Z,0.64
2023-02-01T15:47:25.563Z,0.89
2023-02-01T15:50:02.058Z,0.70
2023-02-01T15:52:39.633Z,0.81
2023-02-01T15:55:43.630Z,0.84
2023-02-01T15:58:26.030Z,1.02
2023-02-01T16:01:03.513Z,0.91
2023-02-01T16:03:52.544Z,1.10
2023-02-01T16:06:27.624Z,1.17
2023-02-01T16:09:14.656Z,1.24
2023-02-01T16:11:56.306Z,1.22
2023-02-01T16:14:34.288Z,1.46
2023-02-01T16:17:02.512Z,1.32
2023-02-01T16:19:33.531Z,1.53
2023-02-01T16:22:19.935Z,1.44
2023-02-01T16:24:51.758Z,1.32
2023-02-01T16:27:27.761Z,1.55
2023-02-01T16:29:58.350Z,1.68
2023-02-01T16:32:30.117Z,1.55
2023-02-01T16:35:03.426Z,1.57
2023-02-01T16:37:56.417Z,1.61
2023-02-01T16:40:27.789Z,1.44
2023-02-01T16:43:06.925Z,1.38
2023-02-01T16:45:37.841Z,1.48
2023-02-01T16:48:10.543Z,1.37
2023-02-01T16:50:40.029Z,1.39
2023-02-01T16:53:14.571Z,1.51
2023-02-01T16:55:51.822Z,1.34
2023-02-01T16:58:21.756Z,1.48
2023-02-01T17:00:56.915Z,1.50
2023-02-01T17:03:47.465Z,1.56
2023-02-01T17:06:22.028Z,1.62
2023-02-01T17:08:58.038Z,1.39
2023-02-01T17:11:44.209Z,1.45
2023-02-01T17:14:43.703Z,1.69
2023-02-01T17:17:12.669Z,1.56
2023-02-01T17:19:49.420Z,1.41
2023-02-01T17:22:25.550Z,1.21
2023-02-01T17:24:58.262Z,1.30
2023-02-01T17:27:32.997Z,1.05
2023-02-01T17:36:09.341Z,0.67
2023-02-01T17:38:41.807Z,0.69
2023-02-01T17:41:15.324Z,0.68
2023-02-01T17:43:44.833Z,0.94
2023-02-01T17:46:17.087Z,1.00
2023-02-01T17:48:45.884Z,0.79
2023-02-01T17:51:28.416Z,0.82
2023-02-01T17:53:57.512Z,0.88
2023-02-01T17:56:38.084Z,0.59
2023-02-01T17:59:06.956Z,0.68
2023-02-01T18:01:37.357Z,0.88
2023-02-01T18:04:06.101Z,0.50
2023-02-01T18:06:40.662Z,0.44
2023-02-01T18:09:10.000Z,0.46
2023-02-01T18:11:40.069Z,0.31
2023-02-01T18:14:16.913Z,0.53
2023-02-01T18:16:47.302Z,0.61
2023-02-01T18:19:20.455Z,0.58
2023-02-01T23:40:13.409Z,1.36
2023-02-01T23:43:31.023Z,1.25
2023-02-01T23:48:56.550Z,1.18
2023-02-01T23:54:54.549Z,1.31
2023-02-01T23:57:26.197Z,1.31
